Terminal Aerodrome Forecast
Issued by NWS

Home | Current Version | Previous Version | Graphics & Text | Print | Product List | Glossary On
Versions: 1 2 3 4 5 6 7 8 9 10 11 12 13 14 15 16 17
916
FTUS45 KGGW 181507 AAB
TAFSDY
TAF AMD
KSDY 181507Z 1815/1912 VRB04KT 1SM BR SCT002 BKN018
      TEMPO 1815/1816 6SM BR SCT002
     FM181600 35005KT P6SM SCT020
     FM190600 VRB04KT P6SM SCT009=

USA.gov is the U.S. government's official web portal to all federal, state and local government web resources and services.